sensor_id;sensor_type;location;lat;lon;timestamp;pressure;altitude;pressure_sealevel;temperature;humidity
61571;BME280;47463;49.884;10.010;2023-05-08T00:00:01;102190;;;12;74
61571;BME280;47463;49.884;10.010;2023-05-08T00:05:01;102200;;;12;74
61571;BME280;47463;49.884;10.010;2023-05-08T00:10:01;102190;;;12;75
61571;BME280;47463;49.884;10.010;2023-05-08T00:15:01;102200;;;11.9;75
61571;BME280;47463;49.884;10.010;2023-05-08T00:20:01;102200;;;12;74
61571;BME280;47463;49.884;10.010;2023-05-08T00:25:01;102210;;;12;74
61571;BME280;47463;49.884;10.010;2023-05-08T00:30:01;102210;;;12;74
61571;BME280;47463;49.884;10.010;2023-05-08T00:35:01;102200;;;12;75
61571;BME280;47463;49.884;10.010;2023-05-08T00:40:01;102210;;;12;75
61571;BME280;47463;49.884;10.010;2023-05-08T00:45:01;102210;;;11.9;75
61571;BME280;47463;49.884;10.010;2023-05-08T00:50:01;102210;;;11.9;75
61571;BME280;47463;49.884;10.010;2023-05-08T00:55:01;102220;;;11.9;75
61571;BME280;47463;49.884;10.010;2023-05-08T01:00:01;102220;;;11.9;75
61571;BME280;47463;49.884;10.010;2023-05-08T01:05:01;102220;;;11.9;75
61571;BME280;47463;49.884;10.010;2023-05-08T01:10:01;102230;;;11.8;75
61571;BME280;47463;49.884;10.010;2023-05-08T01:15:04;102220;;;11.8;75
61571;BME280;47463;49.884;10.010;2023-05-08T01:20:07;102230;;;11.7;75
61571;BME280;47463;49.884;10.010;2023-05-08T01:25:07;102230;;;11.6;75
61571;BME280;47463;49.884;10.010;2023-05-08T01:30:12;102230;;;11.6;76
61571;BME280;47463;49.884;10.010;2023-05-08T01:35:02;102230;;;11.6;76
61571;BME280;47463;49.884;10.010;2023-05-08T01:40:03;102240;;;11.5;76
61571;BME280;47463;49.884;10.010;2023-05-08T01:45:02;102250;;;11.5;76
61571;BME280;47463;49.884;10.010;2023-05-08T01:50:02;102240;;;11.5;77
61571;BME280;47463;49.884;10.010;2023-05-08T01:55:02;102240;;;11.4;77
61571;BME280;47463;49.884;10.010;2023-05-08T02:00:01;102240;;;11.4;77
61571;BME280;47463;49.884;10.010;2023-05-08T02:05:01;102250;;;11.3;77
61571;BME280;47463;49.884;10.010;2023-05-08T02:10:01;102250;;;11.3;77
61571;BME280;47463;49.884;10.010;2023-05-08T02:15:01;102260;;;11.3;77
61571;BME280;47463;49.884;10.010;2023-05-08T02:20:01;102270;;;11.3;77
61571;BME280;47463;49.884;10.010;2023-05-08T02:25:01;102270;;;11.2;77
61571;BME280;47463;49.884;10.010;2023-05-08T02:30:01;102270;;;11.2;77
61571;BME280;47463;49.884;10.010;2023-05-08T02:35:01;102270;;;11.2;77
61571;BME280;47463;49.884;10.010;2023-05-08T02:40:01;102280;;;11.2;77
61571;BME280;47463;49.884;10.010;2023-05-08T02:45:01;102280;;;11.2;77
61571;BME280;47463;49.884;10.010;2023-05-08T02:50:02;102270;;;11.2;77
61571;BME280;47463;49.884;10.010;2023-05-08T02:55:02;102270;;;11.2;77
61571;BME280;47463;49.884;10.010;2023-05-08T03:00:02;102290;;;11.2;77
61571;BME280;47463;49.884;10.010;2023-05-08T03:05:01;102300;;;11.2;77
61571;BME280;47463;49.884;10.010;2023-05-08T03:10:01;102290;;;11.2;77
61571;BME280;47463;49.884;10.010;2023-05-08T03:15:02;102290;;;11.2;77
61571;BME280;47463;49.884;10.010;2023-05-08T03:20:02;102280;;;11.2;77
61571;BME280;47463;49.884;10.010;2023-05-08T03:25:01;102290;;;11.1;78
61571;BME280;47463;49.884;10.010;2023-05-08T03:30:01;102280;;;11.1;77
61571;BME280;47463;49.884;10.010;2023-05-08T03:35:01;102290;;;11.1;78
61571;BME280;47463;49.884;10.010;2023-05-08T03:40:01;102290;;;11.1;78
61571;BME280;47463;49.884;10.010;2023-05-08T03:45:01;102290;;;11.1;78
61571;BME280;47463;49.884;10.010;2023-05-08T03:50:01;102290;;;11.1;78
61571;BME280;47463;49.884;10.010;2023-05-08T03:55:01;102290;;;11.1;77
61571;BME280;47463;49.884;10.010;2023-05-08T04:00:02;102290;;;11.1;77
61571;BME280;47463;49.884;10.010;2023-05-08T04:05:04;102290;;;11.1;76
61571;BME280;47463;49.884;10.010;2023-05-08T04:10:02;102290;;;11.1;76
61571;BME280;47463;49.884;10.010;2023-05-08T04:15:02;102290;;;11.1;76
61571;BME280;47463;49.884;10.010;2023-05-08T04:20:02;102290;;;11.1;76
61571;BME280;47463;49.884;10.010;2023-05-08T04:25:01;102300;;;11.1;77
61571;BME280;47463;49.884;10.010;2023-05-08T04:30:01;102300;;;11.1;77
61571;BME280;47463;49.884;10.010;2023-05-08T04:35:01;102310;;;11.1;77
61571;BME280;47463;49.884;10.010;2023-05-08T04:40:01;102310;;;11.1;77
61571;BME280;47463;49.884;10.010;2023-05-08T04:45:01;102310;;;11.1;77
61571;BME280;47463;49.884;10.010;2023-05-08T04:50:01;102310;;;11.2;77
61571;BME280;47463;49.884;10.010;2023-05-08T04:55:01;102310;;;11.2;77
61571;BME280;47463;49.884;10.010;2023-05-08T05:00:01;102320;;;11.2;77
61571;BME280;47463;49.884;10.010;2023-05-08T05:05:01;102330;;;11.2;77
61571;BME280;47463;49.884;10.010;2023-05-08T05:10:01;102340;;;11.3;76
61571;BME280;47463;49.884;10.010;2023-05-08T05:15:01;102340;;;11.3;76
61571;BME280;47463;49.884;10.010;2023-05-08T05:20:01;102340;;;11.3;75
61571;BME280;47463;49.884;10.010;2023-05-08T05:25:01;102350;;;11.4;74
61571;BME280;47463;49.884;10.010;2023-05-08T05:30:01;102360;;;11.4;74
61571;BME280;47463;49.884;10.010;2023-05-08T05:35:01;102360;;;11.4;74
61571;BME280;47463;49.884;10.010;2023-05-08T05:40:01;102360;;;11.4;73
61571;BME280;47463;49.884;10.010;2023-05-08T05:45:01;102370;;;11.5;73
61571;BME280;47463;49.884;10.010;2023-05-08T05:50:01;102380;;;11.5;73
61571;BME280;47463;49.884;10.010;2023-05-08T05:55:01;102370;;;11.5;73
61571;BME280;47463;49.884;10.010;2023-05-08T06:00:01;102380;;;11.5;73
61571;BME280;47463;49.884;10.010;2023-05-08T06:05:01;102380;;;11.6;72
61571;BME280;47463;49.884;10.010;2023-05-08T06:10:01;102390;;;11.6;72
61571;BME280;47463;49.884;10.010;2023-05-08T06:15:01;102390;;;11.6;72
61571;BME280;47463;49.884;10.010;2023-05-08T06:20:01;102380;;;11.6;71
61571;BME280;47463;49.884;10.010;2023-05-08T06:25:01;102400;;;11.6;71
61571;BME280;47463;49.884;10.010;2023-05-08T06:30:01;102390;;;11.7;71
61571;BME280;47463;49.884;10.010;2023-05-08T06:35:01;102390;;;11.7;71
61571;BME280;47463;49.884;10.010;2023-05-08T06:40:01;102390;;;11.8;70
61571;BME280;47463;49.884;10.010;2023-05-08T06:45:01;102390;;;11.8;70
61571;BME280;47463;49.884;10.010;2023-05-08T06:50:01;102400;;;11.9;69
61571;BME280;47463;49.884;10.010;2023-05-08T06:55:01;102400;;;12;69
61571;BME280;47463;49.884;10.010;2023-05-08T07:00:01;102390;;;12;69
61571;BME280;47463;49.884;10.010;2023-05-08T07:05:01;102390;;;12;69
61571;BME280;47463;49.884;10.010;2023-05-08T07:10:01;102400;;;12.2;69
61571;BME280;47463;49.884;10.010;2023-05-08T07:15:01;102390;;;12.3;69
61571;BME280;47463;49.884;10.010;2023-05-08T07:20:01;102400;;;12.4;69
61571;BME280;47463;49.884;10.010;2023-05-08T07:25:01;102400;;;12.5;69
61571;BME280;47463;49.884;10.010;2023-05-08T07:30:01;102409.99999999999;;;12.4;68
61571;BME280;47463;49.884;10.010;2023-05-08T07:35:01;102409.99999999999;;;12.6;69
61571;BME280;47463;49.884;10.010;2023-05-08T07:40:01;102409.99999999999;;;12.6;68
61571;BME280;47463;49.884;10.010;2023-05-08T07:45:01;102400;;;12.7;69
61571;BME280;47463;49.884;10.010;2023-05-08T07:50:01;102400;;;12.9;68
61571;BME280;47463;49.884;10.010;2023-05-08T07:55:01;102409.99999999999;;;12.7;68
61571;BME280;47463;49.884;10.010;2023-05-08T08:00:01;102409.99999999999;;;12.7;67
61571;BME280;47463;49.884;10.010;2023-05-08T08:05:01;102420;;;12.8;67
61571;BME280;47463;49.884;10.010;2023-05-08T08:10:01;102409.99999999999;;;12.9;67
61571;BME280;47463;49.884;10.010;2023-05-08T08:15:01;102409.99999999999;;;13;67
61571;BME280;47463;49.884;10.010;2023-05-08T08:20:01;102409.99999999999;;;13.2;66
61571;BME280;47463;49.884;10.010;2023-05-08T08:25:01;102409.99999999999;;;13.1;66
61571;BME280;47463;49.884;10.010;2023-05-08T08:30:01;102409.99999999999;;;13.3;66
61571;BME280;47463;49.884;10.010;2023-05-08T08:35:01;102409.99999999999;;;13.3;66
61571;BME280;47463;49.884;10.010;2023-05-08T08:40:01;102409.99999999999;;;13.3;65
61571;BME280;47463;49.884;10.010;2023-05-08T08:45:01;102400;;;13.5;66
61571;BME280;47463;49.884;10.010;2023-05-08T08:50:01;102409.99999999999;;;13.4;65
61571;BME280;47463;49.884;10.010;2023-05-08T08:55:01;102409.99999999999;;;13.6;66
61571;BME280;47463;49.884;10.010;2023-05-08T09:00:01;102409.99999999999;;;13.6;65
61571;BME280;47463;49.884;10.010;2023-05-08T09:05:01;102409.99999999999;;;13.5;65
61571;BME280;47463;49.884;10.010;2023-05-08T09:10:01;102409.99999999999;;;13.6;65
61571;BME280;47463;49.884;10.010;2023-05-08T09:15:01;102409.99999999999;;;13.6;65
61571;BME280;47463;49.884;10.010;2023-05-08T09:20:01;102409.99999999999;;;13.9;65
61571;BME280;47463;49.884;10.010;2023-05-08T09:25:01;102409.99999999999;;;14.1;65
61571;BME280;47463;49.884;10.010;2023-05-08T09:30:02;102409.99999999999;;;14.1;65
61571;BME280;47463;49.884;10.010;2023-05-08T09:35:01;102409.99999999999;;;14;65
61571;BME280;47463;49.884;10.010;2023-05-08T09:40:16;102409.99999999999;;;13.8;66
61571;BME280;47463;49.884;10.010;2023-05-08T09:45:01;102409.99999999999;;;14.2;65
61571;BME280;47463;49.884;10.010;2023-05-08T09:50:02;102409.99999999999;;;14.4;64
61571;BME280;47463;49.884;10.010;2023-05-08T09:55:01;102409.99999999999;;;14.4;63
61571;BME280;47463;49.884;10.010;2023-05-08T10:00:02;102400;;;14.5;63
61571;BME280;47463;49.884;10.010;2023-05-08T10:05:01;102400;;;14.6;63
61571;BME280;47463;49.884;10.010;2023-05-08T10:10:02;102400;;;15.2;63
61571;BME280;47463;49.884;10.010;2023-05-08T10:15:01;102400;;;15.5;62
61571;BME280;47463;49.884;10.010;2023-05-08T10:20:01;102400;;;15.5;62
61571;BME280;47463;49.884;10.010;2023-05-08T10:25:01;102400;;;15.7;63
61571;BME280;47463;49.884;10.010;2023-05-08T10:30:01;102400;;;15.8;63
61571;BME280;47463;49.884;10.010;2023-05-08T10:35:01;102400;;;15.8;62
61571;BME280;47463;49.884;10.010;2023-05-08T10:40:01;102390;;;16;62
61571;BME280;47463;49.884;10.010;2023-05-08T10:45:01;102400;;;15.5;63
61571;BME280;47463;49.884;10.010;2023-05-08T10:50:03;102390;;;16;63
61571;BME280;47463;49.884;10.010;2023-05-08T10:55:13;102400;;;16.3;62
61571;BME280;47463;49.884;10.010;2023-05-08T11:00:01;102390;;;16.7;60
61571;BME280;47463;49.884;10.010;2023-05-08T11:05:13;102380;;;16.5;60
61571;BME280;47463;49.884;10.010;2023-05-08T11:10:05;102380;;;16.4;61
61571;BME280;47463;49.884;10.010;2023-05-08T11:15:01;102380;;;16.4;61
61571;BME280;47463;49.884;10.010;2023-05-08T11:20:02;102370;;;16.6;61
61571;BME280;47463;49.884;10.010;2023-05-08T11:25:02;102370;;;16.2;62
61571;BME280;47463;49.884;10.010;2023-05-08T11:30:16;102380;;;15.8;63
61571;BME280;47463;49.884;10.010;2023-05-08T11:35:01;102390;;;15.8;63
61571;BME280;47463;49.884;10.010;2023-05-08T11:40:20;102380;;;15.8;64
61571;BME280;47463;49.884;10.010;2023-05-08T11:45:02;102380;;;15.8;63
61571;BME280;47463;49.884;10.010;2023-05-08T11:50:01;102370;;;16;64
61571;BME280;47463;49.884;10.010;2023-05-08T11:55:02;102370;;;15.8;64
61571;BME280;47463;49.884;10.010;2023-05-08T12:00:02;102380;;;15.8;64
61571;BME280;47463;49.884;10.010;2023-05-08T12:05:01;102380;;;16;64
61571;BME280;47463;49.884;10.010;2023-05-08T12:10:01;102380;;;16;63
61571;BME280;47463;49.884;10.010;2023-05-08T12:15:04;102380;;;16.2;64
61571;BME280;47463;49.884;10.010;2023-05-08T12:20:08;102370;;;16.1;65
61571;BME280;47463;49.884;10.010;2023-05-08T12:25:02;102370;;;15.7;66
61571;BME280;47463;49.884;10.010;2023-05-08T12:30:03;102370;;;15.7;66
61571;BME280;47463;49.884;10.010;2023-05-08T12:35:01;102370;;;16.2;67
61571;BME280;47463;49.884;10.010;2023-05-08T12:40:01;102370;;;16.4;66
61571;BME280;47463;49.884;10.010;2023-05-08T12:45:01;102360;;;16.1;65
61571;BME280;47463;49.884;10.010;2023-05-08T12:50:01;102360;;;16.2;65
61571;BME280;47463;49.884;10.010;2023-05-08T12:55:01;102360;;;16.2;68
61571;BME280;47463;49.884;10.010;2023-05-08T13:00:02;102360;;;16.5;69
61571;BME280;47463;49.884;10.010;2023-05-08T13:05:01;102350;;;17;68
61571;BME280;47463;49.884;10.010;2023-05-08T13:10:01;102350;;;17;68
61571;BME280;47463;49.884;10.010;2023-05-08T13:15:01;102350;;;17.1;68
61571;BME280;47463;49.884;10.010;2023-05-08T13:20:01;102340;;;16.8;67
61571;BME280;47463;49.884;10.010;2023-05-08T13:25:01;102340;;;17;68
61571;BME280;47463;49.884;10.010;2023-05-08T13:30:01;102330;;;16.9;66
61571;BME280;47463;49.884;10.010;2023-05-08T13:35:01;102320;;;16.9;66
61571;BME280;47463;49.884;10.010;2023-05-08T13:40:01;102320;;;17.8;64
61571;BME280;47463;49.884;10.010;2023-05-08T13:45:01;102320;;;17.3;64
61571;BME280;47463;49.884;10.010;2023-05-08T13:50:01;102320;;;17.1;64
61571;BME280;47463;49.884;10.010;2023-05-08T13:55:01;102320;;;17.1;64
61571;BME280;47463;49.884;10.010;2023-05-08T14:00:01;102300;;;17;64
61571;BME280;47463;49.884;10.010;2023-05-08T14:05:01;102310;;;17.1;64
61571;BME280;47463;49.884;10.010;2023-05-08T14:10:01;102320;;;17.6;64
61571;BME280;47463;49.884;10.010;2023-05-08T14:15:01;102310;;;17.5;63
61571;BME280;47463;49.884;10.010;2023-05-08T14:20:01;102300;;;17.5;63
61571;BME280;47463;49.884;10.010;2023-05-08T14:25:01;102300;;;17.6;63
61571;BME280;47463;49.884;10.010;2023-05-08T14:30:01;102300;;;18;63
61571;BME280;47463;49.884;10.010;2023-05-08T14:35:01;102290;;;18.2;61
61571;BME280;47463;49.884;10.010;2023-05-08T14:40:01;102290;;;18.1;61
61571;BME280;47463;49.884;10.010;2023-05-08T14:45:01;102290;;;18.1;62
61571;BME280;47463;49.884;10.010;2023-05-08T14:50:01;102280;;;17.7;63
61571;BME280;47463;49.884;10.010;2023-05-08T14:55:01;102280;;;17.7;62
61571;BME280;47463;49.884;10.010;2023-05-08T15:00:01;102270;;;17.9;63
61571;BME280;47463;49.884;10.010;2023-05-08T15:05:01;102270;;;18.1;63
61571;BME280;47463;49.884;10.010;2023-05-08T15:10:01;102270;;;17.8;64
61571;BME280;47463;49.884;10.010;2023-05-08T15:15:01;102270;;;17.4;65
61571;BME280;47463;49.884;10.010;2023-05-08T15:20:01;102260;;;17.3;65
61571;BME280;47463;49.884;10.010;2023-05-08T15:25:01;102260;;;17.5;65
61571;BME280;47463;49.884;10.010;2023-05-08T15:30:01;102250;;;17.5;65
61571;BME280;47463;49.884;10.010;2023-05-08T15:35:01;102260;;;17.5;65
61571;BME280;47463;49.884;10.010;2023-05-08T15:40:01;102260;;;17.5;65
61571;BME280;47463;49.884;10.010;2023-05-08T15:45:01;102260;;;17.8;63
61571;BME280;47463;49.884;10.010;2023-05-08T15:50:01;102260;;;17.6;64
61571;BME280;47463;49.884;10.010;2023-05-08T15:55:01;102260;;;17.6;65
61571;BME280;47463;49.884;10.010;2023-05-08T16:00:01;102260;;;17.5;65
61571;BME280;47463;49.884;10.010;2023-05-08T16:05:01;102240;;;17.7;65
61571;BME280;47463;49.884;10.010;2023-05-08T16:10:01;102250;;;17.4;65
61571;BME280;47463;49.884;10.010;2023-05-08T16:15:01;102250;;;17.4;64
61571;BME280;47463;49.884;10.010;2023-05-08T16:20:01;102250;;;17.7;64
61571;BME280;47463;49.884;10.010;2023-05-08T16:25:01;102250;;;17.8;63
61571;BME280;47463;49.884;10.010;2023-05-08T16:30:01;102250;;;17.8;63
61571;BME280;47463;49.884;10.010;2023-05-08T16:35:01;102240;;;17.8;63
61571;BME280;47463;49.884;10.010;2023-05-08T16:40:01;102250;;;17.8;63
61571;BME280;47463;49.884;10.010;2023-05-08T16:45:01;102250;;;17.5;64
61571;BME280;47463;49.884;10.010;2023-05-08T16:50:01;102250;;;17.4;64
61571;BME280;47463;49.884;10.010;2023-05-08T16:55:01;102250;;;17.4;66
61571;BME280;47463;49.884;10.010;2023-05-08T17:00:01;102250;;;17.1;67
61571;BME280;47463;49.884;10.010;2023-05-08T17:05:01;102250;;;17;68
61571;BME280;47463;49.884;10.010;2023-05-08T17:10:01;102250;;;16.9;68
61571;BME280;47463;49.884;10.010;2023-05-08T17:15:01;102260;;;16.8;68
61571;BME280;47463;49.884;10.010;2023-05-08T17:20:01;102250;;;16.7;68
61571;BME280;47463;49.884;10.010;2023-05-08T17:25:01;102250;;;16.7;69
61571;BME280;47463;49.884;10.010;2023-05-08T17:30:01;102250;;;16.6;69
61571;BME280;47463;49.884;10.010;2023-05-08T17:35:01;102260;;;16.5;70
61571;BME280;47463;49.884;10.010;2023-05-08T17:40:01;102260;;;16.4;71
61571;BME280;47463;49.884;10.010;2023-05-08T17:45:01;102260;;;16.4;71
61571;BME280;47463;49.884;10.010;2023-05-08T17:50:01;102260;;;16.2;70
61571;BME280;47463;49.884;10.010;2023-05-08T17:55:01;102260;;;16.1;71
61571;BME280;47463;49.884;10.010;2023-05-08T18:00:01;102260;;;16.1;71
61571;BME280;47463;49.884;10.010;2023-05-08T18:05:01;102260;;;16;71
61571;BME280;47463;49.884;10.010;2023-05-08T18:10:01;102270;;;16;71
61571;BME280;47463;49.884;10.010;2023-05-08T18:15:03;102270;;;15.9;72
61571;BME280;47463;49.884;10.010;2023-05-08T18:20:01;102260;;;15.9;72
61571;BME280;47463;49.884;10.010;2023-05-08T18:25:01;102260;;;15.8;72
61571;BME280;47463;49.884;10.010;2023-05-08T18:30:01;102260;;;15.8;72
61571;BME280;47463;49.884;10.010;2023-05-08T18:35:01;102260;;;15.7;73
61571;BME280;47463;49.884;10.010;2023-05-08T18:40:01;102260;;;15.6;73
61571;BME280;47463;49.884;10.010;2023-05-08T18:45:01;102260;;;15.5;74
61571;BME280;47463;49.884;10.010;2023-05-08T18:50:01;102270;;;15.4;74
61571;BME280;47463;49.884;10.010;2023-05-08T18:55:01;102270;;;15.4;74
61571;BME280;47463;49.884;10.010;2023-05-08T19:00:01;102270;;;15.3;75
61571;BME280;47463;49.884;10.010;2023-05-08T19:05:01;102270;;;15.1;76
61571;BME280;47463;49.884;10.010;2023-05-08T19:10:01;102280;;;15;77
61571;BME280;47463;49.884;10.010;2023-05-08T19:15:01;102280;;;14.8;78
61571;BME280;47463;49.884;10.010;2023-05-08T19:20:01;102280;;;14.7;78
61571;BME280;47463;49.884;10.010;2023-05-08T19:25:01;102290;;;14.6;78
61571;BME280;47463;49.884;10.010;2023-05-08T19:30:01;102280;;;14.7;77
61571;BME280;47463;49.884;10.010;2023-05-08T19:35:01;102280;;;14.7;77
61571;BME280;47463;49.884;10.010;2023-05-08T19:40:01;102290;;;14.7;77
61571;BME280;47463;49.884;10.010;2023-05-08T19:45:01;102290;;;14.5;77
61571;BME280;47463;49.884;10.010;2023-05-08T19:50:01;102280;;;14.4;78
61571;BME280;47463;49.884;10.010;2023-05-08T19:55:01;102280;;;14.3;79
61571;BME280;47463;49.884;10.010;2023-05-08T20:00:01;102290;;;14.2;80
61571;BME280;47463;49.884;10.010;2023-05-08T20:05:01;102290;;;14;81
61571;BME280;47463;49.884;10.010;2023-05-08T20:10:01;102290;;;14;81
61571;BME280;47463;49.884;10.010;2023-05-08T20:15:01;102290;;;13.9;81
61571;BME280;47463;49.884;10.010;2023-05-08T20:20:01;102300;;;13.9;81
61571;BME280;47463;49.884;10.010;2023-05-08T20:25:01;102300;;;13.9;81
61571;BME280;47463;49.884;10.010;2023-05-08T20:30:01;102290;;;13.9;81
61571;BME280;47463;49.884;10.010;2023-05-08T20:35:01;102280;;;13.9;82
61571;BME280;47463;49.884;10.010;2023-05-08T20:40:01;102280;;;13.8;82
61571;BME280;47463;49.884;10.010;2023-05-08T20:45:01;102290;;;13.8;82
61571;BME280;47463;49.884;10.010;2023-05-08T20:50:01;102280;;;13.8;82
61571;BME280;47463;49.884;10.010;2023-05-08T20:55:01;102280;;;13.8;82
61571;BME280;47463;49.884;10.010;2023-05-08T21:00:01;102280;;;13.8;82
61571;BME280;47463;49.884;10.010;2023-05-08T21:05:01;102270;;;13.8;82
61571;BME280;47463;49.884;10.010;2023-05-08T21:10:01;102280;;;13.9;82
61571;BME280;47463;49.884;10.010;2023-05-08T21:15:01;102270;;;13.9;82
61571;BME280;47463;49.884;10.010;2023-05-08T21:20:01;102270;;;13.9;82
61571;BME280;47463;49.884;10.010;2023-05-08T21:25:01;102270;;;13.9;82
61571;BME280;47463;49.884;10.010;2023-05-08T21:30:01;102260;;;13.8;82
61571;BME280;47463;49.884;10.010;2023-05-08T21:35:01;102260;;;13.7;83
61571;BME280;47463;49.884;10.010;2023-05-08T21:40:01;102260;;;13.7;83
61571;BME280;47463;49.884;10.010;2023-05-08T21:45:01;102260;;;13.7;83
61571;BME280;47463;49.884;10.010;2023-05-08T21:50:01;102260;;;13.8;83
61571;BME280;47463;49.884;10.010;2023-05-08T21:55:01;102260;;;13.8;83
61571;BME280;47463;49.884;10.010;2023-05-08T22:00:01;102260;;;13.8;83
61571;BME280;47463;49.884;10.010;2023-05-08T22:05:01;102260;;;13.8;83
61571;BME280;47463;49.884;10.010;2023-05-08T22:10:01;102270;;;13.8;83
61571;BME280;47463;49.884;10.010;2023-05-08T22:15:01;102270;;;13.8;83
61571;BME280;47463;49.884;10.010;2023-05-08T22:20:01;102270;;;13.8;83
61571;BME280;47463;49.884;10.010;2023-05-08T22:25:01;102260;;;13.9;83
61571;BME280;47463;49.884;10.010;2023-05-08T22:30:01;102260;;;14;82
61571;BME280;47463;49.884;10.010;2023-05-08T22:35:01;102260;;;14;82
61571;BME280;47463;49.884;10.010;2023-05-08T22:40:01;102250;;;13.9;82
61571;BME280;47463;49.884;10.010;2023-05-08T22:45:01;102260;;;13.9;82
61571;BME280;47463;49.884;10.010;2023-05-08T22:50:01;102260;;;13.8;82
61571;BME280;47463;49.884;10.010;2023-05-08T22:55:01;102250;;;13.8;82
61571;BME280;47463;49.884;10.010;2023-05-08T23:00:01;102250;;;13.8;82
61571;BME280;47463;49.884;10.010;2023-05-08T23:05:01;102230;;;13.8;82
61571;BME280;47463;49.884;10.010;2023-05-08T23:10:01;102240;;;13.7;83
61571;BME280;47463;49.884;10.010;2023-05-08T23:15:01;102220;;;13.6;83
61571;BME280;47463;49.884;10.010;2023-05-08T23:20:01;102220;;;13.6;82
61571;BME280;47463;49.884;10.010;2023-05-08T23:25:01;102230;;;13.7;81
61571;BME280;47463;49.884;10.010;2023-05-08T23:30:01;102220;;;13.7;81
61571;BME280;47463;49.884;10.010;2023-05-08T23:35:01;102210;;;13.6;81
61571;BME280;47463;49.884;10.010;2023-05-08T23:40:01;102210;;;13.6;81
61571;BME280;47463;49.884;10.010;2023-05-08T23:45:01;102200;;;13.6;82
61571;BME280;47463;49.884;10.010;2023-05-08T23:50:01;102200;;;13.5;81
61571;BME280;47463;49.884;10.010;2023-05-08T23:55:01;102190;;;13.5;79
